Time;durP1;ratioP1;P1;durP2;ratioP2;P2;SDS_P1;SDS_P2;PMS_P1;PMS_P2;Temp;Humidity;BMP_temperature;BMP_pressure;BME280_temperature;BME280_humidity;BME280_pressure;Samples;Min_cycle;Max_cycle;Signal;HPM_P1;HPM_P2
2022/12/17 13:06:03;;;;;;;59.85;33.83;;;2.50;86.70;;;;;;5071802;28;20106;-77
2022/12/17 13:08:29;;;;;;;63.92;36.85;;;2.60;86.90;;;;;;5071948;28;20480;-76
2022/12/17 13:10:55;;;;;;;61.78;33.95;;;2.70;87.60;;;;;;5072284;28;20432;-76
2022/12/17 13:13:23;;;;;;;65.25;34.80;;;2.70;86.40;;;;;;5071824;28;20036;-77
2022/12/17 13:16:01;;;;;;;60.05;34.50;;;2.60;86.20;;;;;;5071737;28;20123;-76
2022/12/17 13:18:32;;;;;;;58.67;34.65;;;2.70;86.80;;;;;;5072045;28;20382;-77
2022/12/17 13:21:15;;;;;;;62.13;35.03;;;2.80;86.80;;;;;;5071744;28;20090;-77
2022/12/17 13:23:42;;;;;;;64.50;34.90;;;2.80;87.30;;;;;;5071757;28;20127;-76
2022/12/17 13:26:19;;;;;;;63.38;35.70;;;2.90;86.60;;;;;;5071675;28;20055;-77
2022/12/17 13:29:01;;;;;;;66.60;38.33;;;2.90;86.50;;;;;;5071795;28;20393;-76
2022/12/17 13:31:40;;;;;;;58.25;34.10;;;2.90;86.40;;;;;;5055062;28;20044;-77
2022/12/17 13:34:30;;;;;;;61.13;33.10;;;2.90;86.20;;;;;;5071671;28;20105;-77
2022/12/17 13:37:23;;;;;;;59.38;34.95;;;2.80;85.90;;;;;;5055308;28;20040;-76
2022/12/17 13:40:32;;;;;;;60.95;35.58;;;2.70;86.10;;;;;;5071638;28;20097;-77
2022/12/17 13:42:58;;;;;;;60.83;36.00;;;2.60;85.90;;;;;;5037259;28;20047;-77
2022/12/17 13:45:26;;;;;;;62.67;36.47;;;2.60;86.10;;;;;;5038257;28;20040;-76
2022/12/17 13:47:56;;;;;;;63.70;35.33;;;2.60;86.00;;;;;;5071519;28;20055;-78
2022/12/17 13:50:24;;;;;;;59.08;34.15;;;2.50;86.00;;;;;;5055064;28;20396;-79
2022/12/17 13:52:49;;;;;;;59.25;34.25;;;2.40;86.10;;;;;;5071379;28;20552;-79
2022/12/17 13:55:22;;;;;;;62.45;35.22;;;2.40;86.40;;;;;;5071189;28;20127;-78
2022/12/17 13:57:49;;;;;;;65.60;35.10;;;2.30;86.80;;;;;;5071501;28;20040;-79
2022/12/17 14:00:27;;;;;;;61.10;33.85;;;2.20;87.10;;;;;;5071445;28;20121;-78
2022/12/17 14:02:53;;;;;;;65.10;36.85;;;2.10;86.60;;;;;;5071439;28;20048;-77
2022/12/17 14:05:33;;;;;;;66.70;36.15;;;2.00;87.10;;;;;;5054586;28;20037;-78
2022/12/17 14:08:02;;;;;;;67.25;36.95;;;1.90;87.40;;;;;;5054591;28;20048;-77
2022/12/17 14:10:28;;;;;;;68.95;38.13;;;1.80;87.60;;;;;;5071576;28;20033;-78
2022/12/17 14:13:11;;;;;;;63.88;36.95;;;1.60;87.80;;;;;;5073590;28;20131;-78
2022/12/17 14:15:37;;;;;;;68.13;37.97;;;1.50;88.40;;;;;;5075192;28;20040;-77
2022/12/17 14:18:03;;;;;;;70.45;36.40;;;1.30;88.60;;;;;;5058361;28;20047;-78
2022/12/17 14:20:32;;;;;;;70.07;37.60;;;1.20;89.20;;;;;;5075439;28;20037;-78
2022/12/17 14:23:05;;;;;;;66.68;37.70;;;1.00;89.60;;;;;;5075115;28;20048;-77
2022/12/17 14:25:37;;;;;;;70.10;38.47;;;0.90;90.10;;;;;;5075220;28;20032;-77
2022/12/17 14:28:23;;;;;;;74.35;39.85;;;0.80;90.20;;;;;;5058352;28;20560;-78
2022/12/17 14:30:50;;;;;;;72.10;38.78;;;0.80;90.60;;;;;;5074972;28;20036;-77
2022/12/17 14:33:28;;;;;;;72.85;39.17;;;0.70;90.70;;;;;;5058208;28;20048;-77
2022/12/17 14:36:00;;;;;;;77.20;40.33;;;0.60;90.70;;;;;;5075062;28;20036;-77
2022/12/17 14:38:26;;;;;;;69.22;38.75;;;0.60;90.80;;;;;;5075082;28;20067;-77
2022/12/17 14:40:52;;;;;;;79.40;40.92;;;0.60;91.00;;;;;;5058275;28;20397;-77
2022/12/17 14:43:27;;;;;;;76.80;41.60;;;0.50;91.20;;;;;;5074647;28;20036;-77
2022/12/17 14:48:59;;;;;;;82.20;42.85;;;0.30;91.50;;;;;;5074688;28;20135;-77
2022/12/17 14:51:31;;;;;;;83.78;41.58;;;0.30;91.50;;;;;;5060001;28;20067;-77
2022/12/17 14:54:24;;;;;;;81.50;43.35;;;0.20;91.60;;;;;;5057819;28;20040;-77
2022/12/17 14:56:51;;;;;;;84.13;42.75;;;0.20;91.80;;;;;;5074449;28;20500;-77
2022/12/17 14:59:39;;;;;;;73.57;42.40;;;0.10;91.90;;;;;;5074789;28;20435;-77
2022/12/17 15:02:09;;;;;;;86.32;43.00;;;0.10;92.00;;;;;;5074475;28;20040;-77
2022/12/17 15:04:37;;;;;;;82.55;43.70;;;0.10;92.00;;;;;;5074256;28;20087;-77
2022/12/17 15:07:04;;;;;;;86.20;44.80;;;0.00;92.20;;;;;;5074105;28;20060;-77
2022/12/17 15:09:35;;;;;;;83.07;43.63;;;0.00;92.20;;;;;;5057689;28;20044;-77
2022/12/17 15:12:01;;;;;;;77.53;40.35;;;0.00;92.30;;;;;;5074281;28;20044;-77
2022/12/17 15:14:27;;;;;;;82.28;43.03;;;0.00;92.20;;;;;;5057393;28;20051;-78
2022/12/17 15:16:54;;;;;;;82.47;43.55;;;0.00;92.20;;;;;;5057749;28;20040;-77
2022/12/17 15:19:20;;;;;;;74.57;40.70;;;-3276.70;92.60;;;;;;5057359;28;20041;-77
2022/12/17 15:21:45;;;;;;;81.63;41.70;;;-3276.60;92.70;;;;;;5056879;28;20477;-77
2022/12/17 15:24:19;;;;;;;82.10;41.33;;;-3276.60;92.70;;;;;;5072970;28;20040;-77
2022/12/17 15:26:46;;;;;;;76.22;40.70;;;-3276.60;92.50;;;;;;5073676;28;20040;-77
2022/12/17 15:29:12;;;;;;;86.10;42.22;;;-3276.60;92.50;;;;;;5073739;28;20047;-77
2022/12/17 15:31:38;;;;;;;84.60;44.13;;;-3276.50;92.80;;;;;;5073918;28;20084;-77
2022/12/17 15:34:04;;;;;;;77.65;40.53;;;-3276.50;92.90;;;;;;5073453;28;20132;-78
2022/12/17 15:36:33;;;;;;;81.30;42.53;;;-3276.50;93.10;;;;;;5057169;28;20032;-77
2022/12/17 15:38:59;;;;;;;82.03;41.05;;;-3276.50;93.00;;;;;;5073734;28;20040;-78
2022/12/17 15:44:09;;;;;;;84.80;43.13;;;-3276.40;93.00;;;;;;5054904;28;20427;-78
2022/12/17 15:46:34;;;;;;;90.45;45.25;;;-3276.40;93.00;;;;;;5071996;28;20037;-79
2022/12/17 15:49:01;;;;;;;81.97;41.97;;;-3276.40;93.10;;;;;;5038867;28;20362;-78
2022/12/17 15:51:26;;;;;;;88.47;43.17;;;-3276.30;93.20;;;;;;5067806;28;20098;-78
2022/12/17 15:53:52;;;;;;;109.95;58.88;;;-3276.30;93.30;;;;;;5069964;28;20052;-79
2022/12/17 15:56:27;;;;;;;90.65;46.83;;;-3276.30;93.40;;;;;;5071764;28;20033;-80
2022/12/17 15:58:55;;;;;;;95.63;46.58;;;-3276.20;93.40;;;;;;5071831;28;20049;-78
2022/12/17 16:01:21;;;;;;;91.38;51.47;;;-3276.20;93.40;;;;;;5073461;28;20042;-76
2022/12/17 16:03:47;;;;;;;85.32;44.72;;;-3276.20;93.20;;;;;;5070391;28;20450;-76
2022/12/17 16:06:12;;;;;;;90.43;48.28;;;-3276.20;93.30;;;;;;5070683;28;20110;-75
2022/12/17 16:08:39;;;;;;;89.22;46.13;;;-3276.20;93.40;;;;;;5035778;28;20047;-74
2022/12/17 16:11:09;;;;;;;79.35;43.03;;;-3276.20;93.40;;;;;;5068427;28;20037;-76
2022/12/17 16:13:36;;;;;;;88.55;46.85;;;-3276.10;93.60;;;;;;5069830;28;20041;-75
2022/12/17 16:16:02;;;;;;;82.38;42.92;;;-3276.10;93.60;;;;;;5054735;28;20089;-75
2022/12/17 16:18:28;;;;;;;85.03;45.28;;;-3276.10;93.60;;;;;;5054498;28;20036;-74
2022/12/17 16:20:53;;;;;;;87.82;46.55;;;-3276.10;93.60;;;;;;5070937;28;20028;-76
2022/12/17 16:23:20;;;;;;;94.43;47.10;;;-3276.10;93.50;;;;;;5069664;28;20109;-77
2022/12/17 16:25:58;;;;;;;89.18;47.90;;;-3276.00;93.50;;;;;;5071448;28;20395;-76
2022/12/17 16:28:25;;;;;;;92.78;45.85;;;-3276.00;93.50;;;;;;5054529;28;20119;-76
2022/12/17 16:31:26;;;;;;;89.53;45.30;;;-3276.00;93.50;;;;;;5071341;28;20392;-74
2022/12/17 16:33:52;;;;;;;86.90;45.72;;;-3276.00;93.70;;;;;;5022353;28;20096;-76
2022/12/17 16:36:19;;;;;;;87.10;45.35;;;-3276.00;93.80;;;;;;5061860;28;20106;-77
2022/12/17 16:38:52;;;;;;;81.13;40.13;;;-3275.90;93.70;;;;;;5054257;28;20098;-77
2022/12/17 16:41:20;;;;;;;94.00;43.97;;;-3275.90;93.80;;;;;;5054397;28;20072;-76
2022/12/17 16:43:47;;;;;;;83.93;45.53;;;-3275.90;93.60;;;;;;5069083;28;20041;-77
2022/12/17 16:46:31;;;;;;;90.82;46.30;;;-3275.90;93.80;;;;;;5053533;28;20044;-74
2022/12/17 16:48:59;;;;;;;91.90;45.33;;;-3275.80;94.00;;;;;;5065915;28;20056;-78
2022/12/17 16:51:26;;;;;;;90.97;46.20;;;-3275.80;93.90;;;;;;5046681;28;20119;-76
2022/12/17 16:53:52;;;;;;;86.22;44.13;;;-3275.80;93.90;;;;;;5063302;28;20128;-77
2022/12/17 16:56:22;;;;;;;95.50;48.05;;;-3275.80;93.90;;;;;;5070179;28;20040;-76
2022/12/17 16:58:48;;;;;;;87.57;45.28;;;-3275.70;94.00;;;;;;5070881;28;20127;-77
2022/12/17 17:01:22;;;;;;;91.78;44.20;;;-3275.70;94.00;;;;;;5070631;28;20092;-76
2022/12/17 17:03:48;;;;;;;85.20;42.58;;;-3275.70;93.90;;;;;;5052396;28;20456;-76
2022/12/17 17:06:16;;;;;;;95.82;52.15;;;-3275.70;93.90;;;;;;5070453;28;20053;-76
2022/12/17 17:08:42;;;;;;;96.95;45.80;;;-3275.60;94.00;;;;;;5070333;28;20048;-76
2022/12/17 17:11:24;;;;;;;83.47;43.05;;;-3275.60;93.90;;;;;;5035470;28;20053;-77
2022/12/17 17:13:52;;;;;;;88.03;43.22;;;-3275.50;94.00;;;;;;5068592;28;20041;-76
2022/12/17 17:16:20;;;;;;;87.95;44.47;;;-3275.50;94.00;;;;;;5053730;28;20047;-77
2022/12/17 17:18:46;;;;;;;87.65;42.47;;;-3275.50;94.10;;;;;;5070094;28;20029;-77
2022/12/17 17:21:18;;;;;;;96.57;49.47;;;-3275.50;94.20;;;;;;5070546;28;20143;-78
2022/12/17 17:23:44;;;;;;;94.03;44.55;;;-3275.50;94.30;;;;;;5052187;28;20386;-77
2022/12/17 17:26:11;;;;;;;87.32;42.20;;;-3275.50;94.30;;;;;;5070262;28;20040;-76
2022/12/17 17:28:38;;;;;;;88.38;43.92;;;-3275.40;94.10;;;;;;5070506;28;20043;-78
2022/12/17 17:31:06;;;;;;;92.65;45.72;;;-3275.40;94.10;;;;;;5071326;28;20076;-76
2022/12/17 17:33:37;;;;;;;86.82;40.80;;;-3275.40;94.30;;;;;;5064072;28;20076;-78
2022/12/17 17:36:08;;;;;;;84.80;42.78;;;-3275.40;94.20;;;;;;5054095;28;20576;-75
2022/12/17 17:38:35;;;;;;;89.38;43.80;;;-3275.40;94.40;;;;;;5063666;28;20362;-76
2022/12/17 17:41:02;;;;;;;92.25;43.05;;;-3275.40;94.40;;;;;;5069561;28;20044;-76
2022/12/17 17:43:28;;;;;;;90.97;46.28;;;-3275.30;94.60;;;;;;5051898;28;20048;-75
2022/12/17 17:45:54;;;;;;;85.80;42.28;;;-3275.30;94.60;;;;;;5068551;28;20040;-78
2022/12/17 17:48:20;;;;;;;97.32;45.00;;;-3275.30;94.60;;;;;;5074541;28;20036;-76
2022/12/17 17:51:00;;;;;;;88.65;45.42;;;-3275.30;94.70;;;;;;5074394;28;20033;-77
2022/12/17 17:53:26;;;;;;;93.47;45.38;;;-3275.30;94.70;;;;;;5054273;28;20040;-77
2022/12/17 17:55:52;;;;;;;90.32;43.25;;;-3275.30;94.60;;;;;;5072420;28;20044;-76
2022/12/17 17:58:18;;;;;;;99.45;45.15;;;-3275.30;94.60;;;;;;5057059;28;20067;-77
2022/12/17 18:00:43;;;;;;;89.18;44.35;;;-3275.30;94.70;;;;;;5040512;28;20079;-75
2022/12/17 18:03:09;;;;;;;93.30;44.13;;;-3275.20;94.70;;;;;;5055686;28;20423;-78
2022/12/17 18:05:41;;;;;;;126.32;64.50;;;-3275.20;94.60;;;;;;5074099;28;20048;-78
2022/12/17 18:08:07;;;;;;;96.43;45.22;;;-3275.20;94.60;;;;;;5057270;28;20048;-75
2022/12/17 18:10:33;;;;;;;95.63;45.05;;;-3275.20;94.60;;;;;;5058681;28;20040;-77
2022/12/17 18:15:43;;;;;;;90.90;44.90;;;-3275.10;94.60;;;;;;5075453;28;20092;-77
2022/12/17 18:18:09;;;;;;;95.32;46.15;;;-3275.20;94.70;;;;;;5058647;28;20040;-78
2022/12/17 18:20:35;;;;;;;97.13;45.58;;;-3275.10;94.70;;;;;;5059097;28;20037;-78
2022/12/17 18:23:00;;;;;;;105.90;48.03;;;-3275.10;94.60;;;;;;5058357;28;20072;-80
2022/12/17 18:25:26;;;;;;;152.68;69.05;;;-3275.10;94.60;;;;;;5075115;28;20032;-76
2022/12/17 18:27:52;;;;;;;135.93;60.45;;;-3275.10;94.60;;;;;;5041800;28;20040;-76
2022/12/17 18:30:18;;;;;;;97.90;45.45;;;-3275.00;94.60;;;;;;5074949;28;20036;-77
2022/12/17 18:32:49;;;;;;;94.72;44.03;;;-3275.00;94.80;;;;;;5058456;28;20089;-77
2022/12/17 18:35:15;;;;;;;93.90;45.20;;;-3275.00;94.70;;;;;;5074959;28;20145;-78
2022/12/17 18:37:40;;;;;;;101.63;47.20;;;-3275.00;94.70;;;;;;5075208;28;20560;-76
2022/12/17 18:40:07;;;;;;;121.88;59.20;;;-3275.00;94.80;;;;;;5074817;28;20554;-77
2022/12/17 18:45:18;;;;;;;118.28;58.30;;;-3275.00;94.90;;;;;;5074633;28;20101;-78
2022/12/17 18:47:43;;;;;;;101.38;45.88;;;-3275.00;94.80;;;;;;5052291;28;20496;-78
2022/12/17 18:50:10;;;;;;;109.40;52.03;;;-3274.90;94.90;;;;;;5057975;28;20049;-77
2022/12/17 18:52:36;;;;;;;102.97;44.55;;;-3275.00;95.00;;;;;;5058006;28;20488;-76
2022/12/17 18:55:02;;;;;;;96.22;47.97;;;-3274.90;95.00;;;;;;5058007;28;20094;-77
2022/12/17 18:57:28;;;;;;;98.38;46.20;;;-3274.90;94.90;;;;;;5024184;28;20064;-78
2022/12/17 18:59:53;;;;;;;93.28;47.75;;;-3274.90;94.80;;;;;;5048866;28;20107;-78
2022/12/17 19:02:19;;;;;;;94.80;44.92;;;-3274.90;94.70;;;;;;5068576;28;20047;-78
2022/12/17 19:04:45;;;;;;;106.25;49.10;;;-3274.80;94.90;;;;;;5057749;28;20041;-79
2022/12/17 19:07:10;;;;;;;95.03;43.95;;;-3274.80;94.80;;;;;;5057498;28;20058;-79
2022/12/17 19:09:38;;;;;;;104.95;45.53;;;-3274.80;94.90;;;;;;5057872;28;20127;-76
2022/12/17 19:12:05;;;;;;;99.95;46.58;;;-3274.80;94.90;;;;;;5074550;28;20048;-77
2022/12/17 19:14:31;;;;;;;95.10;41.80;;;-3274.80;94.90;;;;;;5057211;28;20048;-80
2022/12/17 19:16:57;;;;;;;106.47;48.00;;;-3274.70;94.90;;;;;;5057461;28;20544;-78
2022/12/17 19:19:24;;;;;;;99.78;45.63;;;-3274.70;94.90;;;;;;5057839;28;20115;-79
2022/12/17 19:21:52;;;;;;;96.38;47.08;;;-3274.70;95.00;;;;;;5074078;28;20119;-77
2022/12/17 19:24:20;;;;;;;101.82;45.10;;;-3274.70;94.90;;;;;;5073966;28;20041;-77
2022/12/17 19:26:45;;;;;;;101.00;46.83;;;-3274.70;94.90;;;;;;5041079;28;20036;-81
2022/12/17 19:29:13;;;;;;;96.60;46.42;;;-3274.60;95.00;;;;;;5057226;28;20550;-77
2022/12/17 19:31:39;;;;;;;100.80;45.67;;;-3274.60;95.00;;;;;;5073960;28;20659;-78
2022/12/17 19:34:06;;;;;;;100.57;48.10;;;-3274.60;95.10;;;;;;5040529;28;20080;-77
2022/12/17 19:36:34;;;;;;;102.90;45.83;;;-3274.60;95.20;;;;;;5073801;28;20044;-77
2022/12/17 19:39:03;;;;;;;97.07;45.65;;;-3274.50;95.10;;;;;;5056914;28;20119;-80
2022/12/17 19:41:31;;;;;;;105.50;45.08;;;-3274.60;95.20;;;;;;5073576;28;20068;-76
2022/12/17 19:44:03;;;;;;;98.63;45.47;;;-3274.60;95.20;;;;;;5073855;28;20447;-76
2022/12/17 19:46:30;;;;;;;97.55;43.65;;;-3274.50;95.10;;;;;;5073534;28;20049;-75
2022/12/17 19:48:56;;;;;;;97.90;45.10;;;-3274.50;95.10;;;;;;5073551;28;20040;-77
2022/12/17 19:51:23;;;;;;;99.30;45.95;;;-3274.50;95.20;;;;;;5056685;28;20132;-74
2022/12/17 19:53:49;;;;;;;100.95;46.35;;;-3274.50;95.30;;;;;;5073681;28;20397;-75
2022/12/17 19:56:20;;;;;;;107.10;45.50;;;-3274.50;95.20;;;;;;5073341;28;20036;-76
2022/12/17 19:58:52;;;;;;;105.13;48.97;;;-3274.50;95.10;;;;;;5056649;28;20036;-75
2022/12/17 20:01:23;;;;;;;97.40;45.40;;;-3274.50;95.10;;;;;;5073525;28;20521;-76
2022/12/17 20:03:49;;;;;;;99.72;47.47;;;-3274.50;95.10;;;;;;5073277;28;20045;-77
2022/12/17 20:06:17;;;;;;;103.50;46.95;;;-3274.40;95.10;;;;;;5072985;28;20061;-79
2022/12/17 20:08:43;;;;;;;108.22;49.25;;;-3274.40;95.10;;;;;;5073564;28;20393;-76
2022/12/17 20:14:00;;;;;;;104.03;45.60;;;-3274.40;95.10;;;;;;5073240;28;20404;-77
2022/12/17 20:16:27;;;;;;;101.97;44.40;;;-3274.30;95.00;;;;;;5073233;28;20029;-77
2022/12/17 20:18:52;;;;;;;103.97;45.55;;;-3274.30;95.20;;;;;;5073117;28;20049;-79
2022/12/17 20:21:18;;;;;;;104.45;43.42;;;-3274.30;95.30;;;;;;5073068;28;20400;-77
2022/12/17 20:23:48;;;;;;;104.80;46.13;;;-3274.30;95.30;;;;;;5072953;28;20476;-78
2022/12/17 20:26:14;;;;;;;105.13;44.97;;;-3274.30;95.30;;;;;;5072794;28;20059;-76
2022/12/17 20:28:40;;;;;;;102.82;44.55;;;-3274.20;95.30;;;;;;5056082;28;20045;-77
2022/12/17 20:31:06;;;;;;;103.78;48.60;;;-3274.30;95.20;;;;;;5072527;28;20066;-77
2022/12/17 20:33:32;;;;;;;105.15;43.83;;;-3274.30;95.20;;;;;;5055936;28;20048;-80
2022/12/17 20:36:07;;;;;;;105.13;44.90;;;-3274.30;95.20;;;;;;5055873;28;20047;-78
2022/12/17 20:38:33;;;;;;;100.10;43.33;;;-3274.30;95.20;;;;;;5072792;28;20063;-76
2022/12/17 20:40:59;;;;;;;102.72;45.03;;;-3274.30;95.20;;;;;;5055976;28;20040;-77
2022/12/17 20:43:24;;;;;;;110.07;46.05;;;-3274.30;95.30;;;;;;5056131;28;20086;-76
2022/12/17 20:45:54;;;;;;;107.97;44.95;;;-3274.20;95.40;;;;;;5055929;28;20555;-77
2022/12/17 20:48:22;;;;;;;111.95;45.40;;;-3274.20;95.50;;;;;;5072298;28;20047;-79
2022/12/17 20:50:49;;;;;;;102.00;43.42;;;-3274.20;95.50;;;;;;5072302;28;20114;-76
2022/12/17 20:53:15;;;;;;;109.18;45.90;;;-3274.20;95.60;;;;;;5072185;28;20124;-76
2022/12/17 20:55:41;;;;;;;112.68;44.17;;;-3274.30;95.60;;;;;;5072216;28;20132;-75
2022/12/17 20:58:06;;;;;;;106.00;43.55;;;-3274.30;95.70;;;;;;5072114;28;20489;-76
2022/12/17 21:00:32;;;;;;;107.82;45.35;;;-3274.30;95.70;;;;;;5072083;28;20032;-77
2022/12/17 21:02:58;;;;;;;106.13;45.50;;;-3274.20;95.70;;;;;;5055420;28;20080;-79
2022/12/17 21:05:25;;;;;;;113.32;45.58;;;-3274.20;95.70;;;;;;5072086;28;20405;-78
2022/12/17 21:07:51;;;;;;;110.50;45.50;;;-3274.20;95.80;;;;;;5071943;28;20052;-79
2022/12/17 21:10:17;;;;;;;112.57;46.28;;;-3274.20;95.90;;;;;;5055310;28;20048;-78
2022/12/17 21:15:28;;;;;;;115.13;46.13;;;-3274.20;96.00;;;;;;5057845;28;20087;-77
2022/12/17 21:17:53;;;;;;;117.70;47.72;;;-3274.20;96.00;;;;;;5055266;28;20115;-75
2022/12/17 21:20:19;;;;;;;106.72;45.63;;;-3274.20;96.00;;;;;;5038539;28;20032;-76
2022/12/17 21:22:45;;;;;;;106.47;46.30;;;-3274.20;95.90;;;;;;5071874;28;20090;-76
2022/12/17 21:25:10;;;;;;;106.78;45.13;;;-3274.20;95.80;;;;;;5055312;28;20087;-75
2022/12/17 21:27:36;;;;;;;109.13;47.08;;;-3274.20;95.80;;;;;;5071764;28;20471;-75
2022/12/17 21:30:03;;;;;;;105.18;43.80;;;-3274.20;95.80;;;;;;5071764;28;20140;-75
2022/12/17 21:32:29;;;;;;;117.68;47.13;;;-3274.10;95.80;;;;;;5055266;28;20107;-76
2022/12/17 21:34:54;;;;;;;107.22;45.83;;;-3274.10;95.80;;;;;;5054968;28;20072;-76
2022/12/17 21:37:20;;;;;;;100.47;40.70;;;-3274.10;95.70;;;;;;5054989;28;20044;-75
2022/12/17 21:39:46;;;;;;;107.53;46.45;;;-3274.10;95.80;;;;;;5021960;28;20036;-75
2022/12/17 21:44:55;;;;;;;79.70;34.92;;;-3274.10;95.70;;;;;;5071667;28;20519;-77
2022/12/17 21:47:21;;;;;;;110.65;50.15;;;-3274.10;95.70;;;;;;5038644;28;20084;-76
2022/12/17 21:49:47;;;;;;;117.47;49.75;;;-3274.00;95.80;;;;;;5054825;28;20489;-76
2022/12/17 21:52:12;;;;;;;105.45;45.75;;;-3274.10;95.80;;;;;;5071858;28;20052;-76
2022/12/17 21:54:38;;;;;;;100.97;45.72;;;-3274.10;95.80;;;;;;5071379;28;20630;-75
2022/12/17 21:57:04;;;;;;;101.70;43.10;;;-3274.10;95.70;;;;;;5071795;28;20090;-76
2022/12/17 21:59:29;;;;;;;99.35;41.00;;;-3274.10;95.90;;;;;;5071449;28;20040;-74
2022/12/17 22:01:58;;;;;;;94.63;43.47;;;-3274.00;95.80;;;;;;5071403;28;20178;-74
2022/12/17 22:04:24;;;;;;;102.78;44.30;;;-3274.10;95.60;;;;;;5038922;28;20511;-77
2022/12/17 22:06:50;;;;;;;109.53;48.15;;;-3274.00;95.80;;;;;;5071148;28;20064;-74
2022/12/17 22:09:15;;;;;;;105.28;43.83;;;-3274.00;95.80;;;;;;5071478;28;20044;-75
2022/12/17 22:11:41;;;;;;;102.00;44.35;;;-3274.00;95.90;;;;;;5054634;28;20045;-76
2022/12/17 22:14:10;;;;;;;106.97;46.40;;;-3274.00;95.90;;;;;;5038175;28;20059;-76
2022/12/17 22:16:42;;;;;;;103.55;45.42;;;-3274.00;96.00;;;;;;5071311;28;20511;-75
2022/12/17 22:19:18;;;;;;;109.82;44.75;;;-3274.00;96.00;;;;;;5071630;28;20040;-75
2022/12/17 22:21:45;;;;;;;117.13;51.15;;;-3274.00;96.00;;;;;;5054818;28;20365;-77
2022/12/17 22:24:13;;;;;;;110.82;46.50;;;-3274.00;96.00;;;;;;5071527;28;20431;-74
2022/12/17 22:26:39;;;;;;;96.75;43.88;;;-3274.00;95.90;;;;;;5054548;28;20047;-76
2022/12/17 22:29:04;;;;;;;100.05;45.58;;;-3274.00;96.00;;;;;;5071208;28;20040;-77
2022/12/17 22:34:14;;;;;;;81.43;37.53;;;-3274.00;96.00;;;;;;5073992;28;20461;-75
2022/12/17 22:36:41;;;;;;;95.43;41.00;;;-3274.00;96.00;;;;;;5058293;28;20071;-77
2022/12/17 22:39:10;;;;;;;107.78;48.30;;;-3274.00;96.00;;;;;;5074900;28;20546;-76
2022/12/17 22:44:21;;;;;;;103.88;43.05;;;-3274.00;96.10;;;;;;5074898;28;20086;-76
2022/12/17 22:46:46;;;;;;;109.85;46.53;;;-3274.00;96.10;;;;;;5057970;28;20342;-76
2022/12/17 22:49:12;;;;;;;99.55;44.25;;;-3273.90;96.20;;;;;;5074980;28;20037;-77
2022/12/17 22:51:40;;;;;;;103.45;45.90;;;-3274.00;96.00;;;;;;5074800;28;20036;-76
2022/12/17 22:54:05;;;;;;;107.43;48.55;;;-3274.00;96.00;;;;;;5058099;28;20447;-76
2022/12/17 22:56:33;;;;;;;108.07;48.05;;;-3274.00;96.10;;;;;;5058141;28;20037;-76
2022/12/17 22:58:58;;;;;;;147.23;63.10;;;-3274.00;96.10;;;;;;5074717;28;20113;-77
2022/12/17 23:01:24;;;;;;;208.68;76.70;;;-3274.00;96.10;;;;;;5041218;28;20509;-76
2022/12/17 23:03:54;;;;;;;160.25;62.25;;;-3274.00;96.10;;;;;;5074382;28;20123;-75
2022/12/17 23:06:20;;;;;;;183.07;73.13;;;-3273.90;96.10;;;;;;5074405;28;20476;-78
2022/12/17 23:08:46;;;;;;;249.18;90.07;;;-3274.00;96.10;;;;;;5074264;28;20123;-77
2022/12/17 23:11:16;;;;;;;197.88;72.05;;;-3273.90;96.10;;;;;;5074470;28;20040;-76
2022/12/17 23:13:43;;;;;;;111.72;49.45;;;-3273.90;96.20;;;;;;5057357;28;20036;-77
2022/12/17 23:16:12;;;;;;;91.90;41.90;;;-3273.90;96.30;;;;;;5074423;28;20044;-78
2022/12/17 23:18:38;;;;;;;114.25;46.85;;;-3273.90;96.40;;;;;;5074154;28;20040;-77
2022/12/17 23:21:13;;;;;;;109.20;46.25;;;-3273.90;96.40;;;;;;5074021;28;20046;-77
2022/12/17 23:23:39;;;;;;;108.55;45.83;;;-3273.90;96.50;;;;;;5074131;28;20051;-76
2022/12/17 23:26:11;;;;;;;100.10;42.80;;;-3273.90;96.40;;;;;;5041068;28;20036;-76
2022/12/17 23:28:36;;;;;;;116.93;48.63;;;-3274.00;96.40;;;;;;5057320;28;20594;-78
2022/12/17 23:31:10;;;;;;;109.28;48.85;;;-3273.90;96.50;;;;;;5073869;28;20033;-76
2022/12/17 23:33:36;;;;;;;100.55;44.40;;;-3274.00;96.40;;;;;;5074083;28;20036;-76
2022/12/17 23:36:07;;;;;;;103.13;42.38;;;-3274.00;96.40;;;;;;5057192;28;20392;-77
2022/12/17 23:38:34;;;;;;;126.85;52.00;;;-3273.90;96.30;;;;;;5057111;28;20059;-74
2022/12/17 23:41:08;;;;;;;109.50;45.58;;;-3273.90;96.40;;;;;;5073633;28;20040;-76
2022/12/17 23:43:34;;;;;;;119.88;50.25;;;-3274.00;96.30;;;;;;5074046;28;20044;-74
2022/12/17 23:46:00;;;;;;;230.80;99.97;;;-3273.90;96.40;;;;;;5057038;28;20044;-76
2022/12/17 23:48:31;;;;;;;117.65;50.85;;;-3273.90;96.40;;;;;;5073658;28;20484;-76
2022/12/17 23:50:58;;;;;;;112.38;49.65;;;-3273.90;96.40;;;;;;5073621;28;20041;-76
2022/12/17 23:53:24;;;;;;;116.15;52.15;;;-3274.00;96.20;;;;;;5073621;28;20101;-75
2022/12/17 23:55:50;;;;;;;102.93;44.72;;;-3273.90;96.10;;;;;;5073734;28;20480;-76
2022/12/17 23:58:16;;;;;;;110.95;48.75;;;-3273.90;96.10;;;;;;5073712;28;20040;-74
